Time;durP1;ratioP1;P1;durP2;ratioP2;P2;SDS_P1;SDS_P2;PMS_P1;PMS_P2;Temp;Humidity;BMP_temperature;BMP_pressure;BME280_temperature;BME280_humidity;BME280_pressure;Samples;Min_cycle;Max_cycle;Signal;HPM_P1;HPM_P2
2024/01/11 00:00:31;;;;;;;20.50;11.75;;;-2.10;99.90;;;;;;4962759;28;20041;-58
2024/01/11 00:02:57;;;;;;;21.90;13.27;;;-2.10;99.90;;;;;;4965231;28;20035;-55
2024/01/11 00:05:22;;;;;;;25.73;15.20;;;-2.00;99.90;;;;;;4964936;28;20043;-56
2024/01/11 00:07:48;;;;;;;27.45;14.20;;;-2.10;99.90;;;;;;4962410;28;20073;-55
2024/01/11 00:10:15;;;;;;;20.35;13.57;;;-2.00;99.90;;;;;;4962715;28;20528;-57
2024/01/11 00:12:40;;;;;;;25.10;13.88;;;-2.00;99.90;;;;;;4963707;28;20035;-53
2024/01/11 00:15:06;;;;;;;21.05;14.75;;;-2.00;99.90;;;;;;4965166;28;20097;-57
2024/01/11 00:17:35;;;;;;;25.55;16.33;;;-2.00;99.90;;;;;;4964075;28;20603;-57
2024/01/11 00:20:01;;;;;;;22.58;14.15;;;-2.00;99.90;;;;;;4966104;28;20031;-56
2024/01/11 00:22:27;;;;;;;25.42;15.55;;;-1.90;99.90;;;;;;4959445;28;20459;-57
2024/01/11 00:24:52;;;;;;;26.25;16.02;;;-1.90;99.90;;;;;;4963589;28;20031;-58
2024/01/11 00:27:18;;;;;;;23.10;14.10;;;-2.00;99.90;;;;;;4961423;28;20031;-58
2024/01/11 00:29:44;;;;;;;24.85;14.60;;;-2.00;99.90;;;;;;4963047;28;20050;-58
2024/01/11 00:32:09;;;;;;;26.75;14.32;;;-2.00;99.90;;;;;;4965498;28;20042;-58
2024/01/11 00:34:35;;;;;;;25.88;15.15;;;-2.00;99.90;;;;;;4965986;28;20101;-58
2024/01/11 00:37:01;;;;;;;24.70;15.55;;;-2.00;99.90;;;;;;4966275;28;20103;-55
2024/01/11 00:39:27;;;;;;;23.20;14.57;;;-2.00;99.90;;;;;;4963072;28;20139;-53
2024/01/11 00:41:53;;;;;;;21.33;13.40;;;-2.00;99.90;;;;;;4964730;28;20097;-55
2024/01/11 00:44:18;;;;;;;24.10;15.60;;;-2.00;99.90;;;;;;4963908;28;20031;-56
2024/01/11 00:46:44;;;;;;;25.67;14.45;;;-2.00;99.90;;;;;;4962899;28;20039;-55
2024/01/11 00:49:10;;;;;;;24.15;16.02;;;-2.00;99.90;;;;;;4963483;28;20041;-53
2024/01/11 00:51:35;;;;;;;25.27;15.45;;;-2.00;99.90;;;;;;4964764;28;20031;-55
2024/01/11 00:54:01;;;;;;;25.10;15.20;;;-2.00;99.90;;;;;;4963967;28;20655;-52
2024/01/11 00:56:27;;;;;;;24.73;14.40;;;-2.00;99.90;;;;;;4964584;28;20031;-58
2024/01/11 00:58:52;;;;;;;26.40;14.70;;;-2.00;99.90;;;;;;4964681;28;20089;-53
2024/01/11 01:01:18;;;;;;;26.65;15.48;;;-2.00;99.90;;;;;;4960190;28;20027;-55
2024/01/11 01:03:44;;;;;;;23.48;14.43;;;-2.10;99.90;;;;;;4964154;28;20035;-52
2024/01/11 01:06:09;;;;;;;22.90;13.10;;;-2.10;99.90;;;;;;4962604;28;20027;-54
2024/01/11 01:08:35;;;;;;;22.58;14.00;;;-2.00;99.90;;;;;;4976631;28;20616;-53
2024/01/11 01:11:00;;;;;;;25.20;15.68;;;-2.10;99.90;;;;;;4960484;28;20448;-56
2024/01/11 01:13:26;;;;;;;26.77;16.77;;;-2.10;99.90;;;;;;4962540;28;20627;-56
2024/01/11 01:15:51;;;;;;;26.63;15.80;;;-2.10;99.90;;;;;;4962782;28;20040;-53
2024/01/11 01:18:17;;;;;;;29.35;17.35;;;-2.10;99.90;;;;;;4964650;28;20088;-58
2024/01/11 01:20:43;;;;;;;30.55;16.90;;;-2.00;99.90;;;;;;4961915;28;20027;-52
2024/01/11 01:23:08;;;;;;;30.73;15.90;;;-2.00;99.90;;;;;;4964298;28;20038;-57
2024/01/11 01:25:34;;;;;;;29.17;16.65;;;-2.00;99.90;;;;;;4961275;28;20037;-51
2024/01/11 01:28:00;;;;;;;28.02;16.13;;;-2.10;99.90;;;;;;4959564;28;20681;-54
2024/01/11 01:30:29;;;;;;;30.10;17.15;;;-2.10;99.90;;;;;;4962413;28;20404;-52
2024/01/11 01:32:55;;;;;;;26.40;16.20;;;-2.10;99.90;;;;;;4961557;28;20038;-53
2024/01/11 01:35:21;;;;;;;26.90;15.57;;;-2.10;99.90;;;;;;4962130;28;20014;-56
2024/01/11 01:37:47;;;;;;;25.08;13.60;;;-2.10;99.90;;;;;;4961699;28;20038;-56
2024/01/11 01:40:13;;;;;;;24.52;14.70;;;-2.10;99.90;;;;;;4961991;28;20026;-56
2024/01/11 01:42:43;;;;;;;27.90;15.82;;;-2.10;99.90;;;;;;4962608;28;20260;-54
2024/01/11 01:45:09;;;;;;;21.40;12.85;;;-2.10;99.90;;;;;;4961934;28;20126;-57
2024/01/11 01:47:35;;;;;;;21.65;13.43;;;-2.10;99.90;;;;;;4961423;28;20086;-56
2024/01/11 01:50:01;;;;;;;27.27;15.73;;;-2.10;99.90;;;;;;4963886;28;20596;-59
2024/01/11 01:52:27;;;;;;;30.15;16.50;;;-2.20;99.90;;;;;;4963157;28;20142;-57
2024/01/11 01:54:53;;;;;;;28.88;15.00;;;-2.10;99.90;;;;;;4963755;28;20121;-59
2024/01/11 01:57:19;;;;;;;29.10;15.82;;;-2.10;99.90;;;;;;4958091;28;20034;-58
2024/01/11 01:59:48;;;;;;;28.52;15.70;;;-2.10;99.90;;;;;;4956215;28;20031;-58
2024/01/11 02:02:14;;;;;;;27.25;15.05;;;-2.10;99.90;;;;;;4960291;28;20409;-58
2024/01/11 02:04:39;;;;;;;28.00;15.27;;;-2.10;99.90;;;;;;4962266;28;20043;-56
2024/01/11 02:07:06;;;;;;;31.38;16.98;;;-2.10;99.90;;;;;;4961295;28;20039;-58
2024/01/11 02:09:33;;;;;;;25.05;14.73;;;-2.20;99.90;;;;;;4958182;28;20066;-59
2024/01/11 02:11:59;;;;;;;27.35;15.98;;;-2.20;99.90;;;;;;4961859;28;20046;-58
2024/01/11 02:14:26;;;;;;;27.52;14.68;;;-2.10;99.90;;;;;;4960227;28;20129;-56
2024/01/11 02:16:51;;;;;;;26.95;14.45;;;-2.10;99.90;;;;;;4961024;28;20069;-59
2024/01/11 02:19:19;;;;;;;25.17;13.63;;;-2.10;99.90;;;;;;4960338;28;20496;-60
2024/01/11 02:21:48;;;;;;;29.63;16.10;;;-2.10;99.90;;;;;;4958706;28;20507;-57
2024/01/11 02:24:14;;;;;;;26.33;15.80;;;-2.10;99.90;;;;;;4960607;28;20122;-59
2024/01/11 02:26:59;;;;;;;24.30;14.77;;;-2.10;99.90;;;;;;4973452;28;20598;-54
2024/01/11 02:29:25;;;;;;;26.67;16.10;;;-2.20;99.90;;;;;;4960261;28;20034;-56
2024/01/11 02:31:50;;;;;;;23.80;13.27;;;-2.20;99.90;;;;;;4960790;28;20031;-55
2024/01/11 02:34:16;;;;;;;26.67;14.95;;;-2.20;99.90;;;;;;4959610;28;20027;-56
2024/01/11 02:36:42;;;;;;;24.50;14.30;;;-2.20;99.90;;;;;;4959934;28;20039;-54
2024/01/11 02:39:08;;;;;;;24.38;15.27;;;-2.20;99.90;;;;;;4958422;28;20075;-58
2024/01/11 02:41:35;;;;;;;22.95;13.82;;;-2.20;99.90;;;;;;4960126;28;20066;-54
2024/01/11 02:44:01;;;;;;;23.48;13.88;;;-2.20;99.90;;;;;;4960717;28;20038;-56
2024/01/11 02:46:26;;;;;;;22.35;13.80;;;-2.20;99.90;;;;;;4960893;28;20027;-57
2024/01/11 02:48:52;;;;;;;25.33;15.15;;;-2.20;99.90;;;;;;4959948;28;20811;-55
2024/01/11 02:51:17;;;;;;;27.45;14.02;;;-2.20;99.90;;;;;;4959314;28;20035;-60
2024/01/11 02:53:43;;;;;;;28.35;14.45;;;-2.20;99.90;;;;;;4957791;28;20507;-55
2024/01/11 02:56:08;;;;;;;27.30;13.60;;;-2.20;99.90;;;;;;4958783;28;20692;-55
2024/01/11 02:58:34;;;;;;;23.33;13.52;;;-2.10;99.90;;;;;;4974143;28;21050;-58
2024/01/11 03:01:00;;;;;;;24.70;14.40;;;-2.20;99.90;;;;;;4962840;28;20344;-52
2024/01/11 03:03:25;;;;;;;27.10;14.23;;;-2.20;99.90;;;;;;4959848;28;20039;-52
2024/01/11 03:05:51;;;;;;;27.42;13.25;;;-2.20;99.90;;;;;;4959540;28;20106;-57
2024/01/11 03:08:16;;;;;;;26.70;13.93;;;-2.20;99.90;;;;;;4961224;28;20054;-58
2024/01/11 03:10:42;;;;;;;21.38;12.85;;;-2.20;99.90;;;;;;4963394;28;20030;-57
2024/01/11 03:13:07;;;;;;;26.80;13.15;;;-2.20;99.90;;;;;;4968061;28;20152;-53
2024/01/11 03:15:33;;;;;;;26.80;14.38;;;-2.20;99.90;;;;;;4963100;28;20115;-57
2024/01/11 03:17:59;;;;;;;24.83;13.40;;;-2.20;99.90;;;;;;4966004;28;20034;-57
2024/01/11 03:20:24;;;;;;;23.20;13.35;;;-2.20;99.90;;;;;;4963666;28;20022;-53
2024/01/11 03:22:52;;;;;;;20.58;12.35;;;-2.20;99.90;;;;;;4963292;28;20031;-59
2024/01/11 03:25:18;;;;;;;24.25;13.98;;;-2.20;99.90;;;;;;4962643;28;20070;-61
2024/01/11 03:27:43;;;;;;;24.25;13.52;;;-2.20;99.90;;;;;;4965392;28;20058;-57
2024/01/11 03:30:09;;;;;;;22.83;13.23;;;-2.20;99.90;;;;;;4961077;28;20031;-59
2024/01/11 03:32:34;;;;;;;18.75;11.48;;;-2.20;99.90;;;;;;4965599;28;20023;-55
2024/01/11 03:35:00;;;;;;;22.27;13.30;;;-2.20;99.90;;;;;;4965136;28;20094;-56
2024/01/11 03:37:26;;;;;;;24.60;13.48;;;-2.20;99.90;;;;;;4962688;28;20154;-57
2024/01/11 03:39:51;;;;;;;19.85;11.48;;;-2.30;99.90;;;;;;4965581;28;20110;-59
2024/01/11 03:42:17;;;;;;;22.38;12.88;;;-2.20;99.90;;;;;;4964257;28;20061;-58
2024/01/11 03:44:42;;;;;;;21.10;13.02;;;-2.30;99.90;;;;;;4964004;28;20018;-58
2024/01/11 03:47:08;;;;;;;24.73;14.05;;;-2.30;99.90;;;;;;4964037;28;20031;-57
2024/01/11 03:49:33;;;;;;;21.20;12.77;;;-2.30;99.90;;;;;;4965185;28;20407;-60
2024/01/11 03:51:59;;;;;;;21.98;13.63;;;-2.30;99.90;;;;;;4959872;28;20027;-59
2024/01/11 03:54:24;;;;;;;26.38;14.15;;;-2.30;99.90;;;;;;4964815;28;20058;-58
2024/01/11 03:56:50;;;;;;;23.88;14.48;;;-2.30;99.90;;;;;;4962248;28;20038;-59
2024/01/11 03:59:16;;;;;;;24.45;14.18;;;-2.20;99.90;;;;;;4964832;28;20104;-58
2024/01/11 04:01:42;;;;;;;23.38;13.73;;;-2.20;99.90;;;;;;4963941;28;20027;-58
2024/01/11 04:04:07;;;;;;;24.05;13.88;;;-2.20;99.90;;;;;;4964929;28;20104;-58
2024/01/11 04:06:33;;;;;;;25.88;14.80;;;-2.20;99.90;;;;;;4964389;28;20030;-58
2024/01/11 04:08:59;;;;;;;23.25;14.57;;;-2.20;99.90;;;;;;4962066;28;20031;-60
2024/01/11 04:11:28;;;;;;;24.80;14.90;;;-2.20;99.90;;;;;;4965183;28;20126;-58
2024/01/11 04:13:53;;;;;;;24.73;15.27;;;-2.20;99.90;;;;;;4965391;28;20027;-57
2024/01/11 04:16:19;;;;;;;28.52;14.70;;;-2.20;99.90;;;;;;4962962;28;20137;-59
2024/01/11 04:18:45;;;;;;;28.02;14.85;;;-2.30;99.90;;;;;;4964060;28;20019;-57
2024/01/11 04:21:40;;;;;;;24.13;13.63;;;-2.30;99.90;;;;;;4963669;28;20039;-53
2024/01/11 04:24:06;;;;;;;25.13;14.68;;;-2.30;99.90;;;;;;4954852;28;20042;-55
2024/01/11 04:26:32;;;;;;;23.70;13.55;;;-2.30;99.90;;;;;;4963292;28;20121;-55
2024/01/11 04:28:59;;;;;;;25.65;13.82;;;-2.30;99.90;;;;;;4963784;28;20078;-57
2024/01/11 04:31:25;;;;;;;21.27;12.57;;;-2.30;99.90;;;;;;4962606;28;20122;-53
2024/01/11 04:33:51;;;;;;;27.80;14.77;;;-2.30;99.90;;;;;;4963555;28;20054;-56
2024/01/11 04:36:16;;;;;;;22.63;13.27;;;-2.30;99.90;;;;;;4964452;28;20050;-58
2024/01/11 04:38:42;;;;;;;24.92;13.70;;;-2.30;99.90;;;;;;4960418;28;20046;-57
2024/01/11 04:41:11;;;;;;;23.67;12.63;;;-2.30;99.90;;;;;;4963149;28;20033;-55
2024/01/11 04:43:40;;;;;;;24.05;13.20;;;-2.30;99.90;;;;;;4962439;28;21420;-57
2024/01/11 04:46:22;;;;;;;21.13;12.48;;;-2.30;99.90;;;;;;4964627;28;20038;-58
2024/01/11 04:48:49;;;;;;;22.98;12.30;;;-2.30;99.90;;;;;;4962789;28;20071;-57
2024/01/11 04:51:16;;;;;;;21.70;12.43;;;-2.30;99.90;;;;;;4961708;28;20038;-58
2024/01/11 04:53:42;;;;;;;23.92;13.80;;;-2.30;99.90;;;;;;4962828;28;20106;-53
2024/01/11 04:56:10;;;;;;;26.42;14.30;;;-2.30;99.90;;;;;;4961536;28;20027;-57
2024/01/11 04:58:37;;;;;;;23.95;14.27;;;-2.30;99.90;;;;;;4960903;28;20015;-53
2024/01/11 05:01:03;;;;;;;24.13;14.05;;;-2.30;99.90;;;;;;4965058;28;20495;-53
2024/01/11 05:03:30;;;;;;;23.42;12.98;;;-2.30;99.90;;;;;;4960475;28;20037;-54
2024/01/11 05:05:55;;;;;;;20.13;12.80;;;-2.20;99.90;;;;;;4964906;28;20545;-54
2024/01/11 05:08:22;;;;;;;25.85;15.48;;;-2.30;99.90;;;;;;4960511;28;20030;-55
2024/01/11 05:10:47;;;;;;;26.23;14.88;;;-2.30;99.90;;;;;;4962904;28;20023;-55
2024/01/11 05:13:13;;;;;;;25.85;14.10;;;-2.30;99.90;;;;;;4962514;28;20031;-54
2024/01/11 05:15:38;;;;;;;24.02;14.00;;;-2.30;99.90;;;;;;4963116;28;20026;-52
2024/01/11 05:18:04;;;;;;;26.33;13.75;;;-2.30;99.90;;;;;;4962195;28;20019;-53
2024/01/11 05:20:29;;;;;;;21.70;12.90;;;-2.20;99.90;;;;;;4961448;28;20066;-50
2024/01/11 05:22:55;;;;;;;21.98;12.38;;;-2.20;99.90;;;;;;4963437;28;20034;-54
2024/01/11 05:25:20;;;;;;;19.80;11.38;;;-2.20;99.90;;;;;;4959611;28;20023;-55
2024/01/11 05:27:46;;;;;;;18.85;10.90;;;-2.20;99.90;;;;;;4962408;28;20026;-58
2024/01/11 05:30:12;;;;;;;20.77;11.20;;;-2.20;99.90;;;;;;4961706;28;20033;-56
2024/01/11 05:32:38;;;;;;;19.92;10.80;;;-2.20;99.90;;;;;;4962885;28;20117;-54
2024/01/11 05:35:03;;;;;;;21.77;11.02;;;-2.20;99.90;;;;;;4962198;28;20377;-58
2024/01/11 05:37:29;;;;;;;21.13;10.13;;;-2.20;99.90;;;;;;4963000;28;20027;-57
2024/01/11 05:39:56;;;;;;;16.48;9.18;;;-2.20;99.90;;;;;;4960804;28;20077;-56
2024/01/11 05:42:23;;;;;;;15.77;9.38;;;-2.20;99.90;;;;;;4962495;28;20110;-57
2024/01/11 05:44:48;;;;;;;17.75;9.63;;;-2.20;99.90;;;;;;4997812;23;20053;-85
2024/01/11 05:47:14;;;;;;;17.10;8.52;;;-2.20;99.90;;;;;;5006559;28;20084;-85
2024/01/11 05:49:40;;;;;;;14.63;7.43;;;-2.10;99.90;;;;;;5005298;28;20022;-84
2024/01/11 05:52:06;;;;;;;10.52;6.18;;;-2.10;99.90;;;;;;5003631;28;20137;-84
2024/01/11 05:54:31;;;;;;;11.40;6.25;;;-2.20;99.90;;;;;;5003600;28;20443;-84
2024/01/11 05:56:59;;;;;;;11.50;6.38;;;-2.20;99.90;;;;;;5004963;28;20029;-84
2024/01/11 05:59:24;;;;;;;9.40;5.85;;;-2.10;99.90;;;;;;5002181;28;20458;-85
2024/01/11 06:01:50;;;;;;;10.38;5.45;;;-2.10;99.90;;;;;;5005395;28;20030;-85
2024/01/11 06:04:16;;;;;;;12.00;6.10;;;-2.20;99.90;;;;;;5004217;28;20029;-85
2024/01/11 06:06:42;;;;;;;11.48;6.68;;;-2.10;99.90;;;;;;5005494;28;20033;-85
2024/01/11 06:09:08;;;;;;;9.63;5.65;;;-2.10;99.90;;;;;;5002336;28;20521;-85
2024/01/11 06:11:34;;;;;;;10.77;6.10;;;-2.10;99.90;;;;;;5004761;28;20556;-84
2024/01/11 06:14:01;;;;;;;9.50;5.88;;;-2.10;99.90;;;;;;5010069;28;20120;-84
2024/01/11 06:16:26;;;;;;;12.00;6.10;;;-2.10;99.90;;;;;;5006022;28;20041;-84
2024/01/11 06:18:52;;;;;;;12.57;6.05;;;-2.10;99.90;;;;;;5006258;28;20048;-84
2024/01/11 06:21:18;;;;;;;11.45;5.63;;;-2.10;99.90;;;;;;5005949;28;20027;-85
2024/01/11 06:23:44;;;;;;;10.95;6.18;;;-2.10;99.90;;;;;;5009779;28;20041;-84
2024/01/11 06:26:10;;;;;;;10.90;5.30;;;-2.10;99.90;;;;;;5005550;28;20026;-86
2024/01/11 06:28:35;;;;;;;15.85;8.70;;;-2.10;99.90;;;;;;5008091;28;20117;-85
2024/01/11 06:31:01;;;;;;;14.13;7.25;;;-2.00;99.90;;;;;;5002852;28;20108;-84
2024/01/11 06:33:28;;;;;;;12.07;6.82;;;-2.00;99.90;;;;;;4998107;28;20167;-84
2024/01/11 06:35:53;;;;;;;14.20;7.43;;;-2.00;99.90;;;;;;5000239;28;20038;-84
2024/01/11 06:38:19;;;;;;;12.77;6.75;;;-2.00;99.90;;;;;;4999810;28;20037;-84
2024/01/11 06:40:45;;;;;;;12.10;7.47;;;-2.00;99.90;;;;;;5002743;28;20121;-85
2024/01/11 06:43:11;;;;;;;13.20;6.38;;;-2.10;99.90;;;;;;5001314;28;20544;-85
2024/01/11 06:45:36;;;;;;;13.88;7.28;;;-2.10;99.90;;;;;;5004462;28;20057;-84
2024/01/11 06:48:02;;;;;;;13.45;6.93;;;-2.00;99.90;;;;;;5002541;28;20084;-85
2024/01/11 06:50:28;;;;;;;13.50;7.20;;;-2.00;99.90;;;;;;5001164;28;20026;-84
2024/01/11 06:52:54;;;;;;;15.32;7.07;;;-2.00;99.90;;;;;;5001714;28;20026;-84
2024/01/11 06:55:19;;;;;;;12.85;6.97;;;-2.00;99.90;;;;;;5001972;28;20041;-82
2024/01/11 06:57:48;;;;;;;13.93;7.15;;;-2.00;99.90;;;;;;5002531;28;20027;-85
2024/01/11 07:00:13;;;;;;;13.00;7.88;;;-2.00;99.90;;;;;;5003920;28;20030;-84
2024/01/11 07:02:40;;;;;;;16.60;8.77;;;-2.00;99.90;;;;;;5003004;28;20033;-85
2024/01/11 07:05:06;;;;;;;15.77;8.77;;;-2.00;99.90;;;;;;5005178;28;20121;-84
2024/01/11 07:07:32;;;;;;;11.48;7.03;;;-1.90;99.90;;;;;;5006886;28;20054;-83
2024/01/11 07:09:58;;;;;;;15.48;7.43;;;-1.90;99.90;;;;;;5003747;28;20052;-85
2024/01/11 07:12:24;;;;;;;13.95;7.63;;;-2.00;99.90;;;;;;5002634;28;20479;-85
2024/01/11 07:14:50;;;;;;;14.20;7.70;;;-1.90;99.90;;;;;;5004160;28;20033;-84
2024/01/11 07:17:15;;;;;;;13.48;6.32;;;-2.00;99.90;;;;;;4997783;28;20501;-84
2024/01/11 07:19:41;;;;;;;9.82;5.57;;;-2.00;99.90;;;;;;5002139;28;20033;-84
2024/01/11 07:22:07;;;;;;;12.70;5.65;;;-1.90;99.90;;;;;;5004275;28;20076;-84
2024/01/11 07:24:37;;;;;;;10.23;6.00;;;-1.90;99.90;;;;;;5001352;28;20040;-85
2024/01/11 07:27:04;;;;;;;11.50;6.65;;;-2.00;99.90;;;;;;5003926;28;20108;-85
2024/01/11 07:29:30;;;;;;;10.32;5.70;;;-1.90;99.90;;;;;;4996198;28;20376;-84
2024/01/11 07:31:56;;;;;;;10.07;5.93;;;-1.90;99.90;;;;;;5007233;28;20040;-84
2024/01/11 07:34:21;;;;;;;11.85;5.82;;;-1.90;99.90;;;;;;5002890;28;20026;-84
2024/01/11 07:36:47;;;;;;;12.25;5.72;;;-1.90;99.90;;;;;;5006999;28;20022;-84
2024/01/11 07:39:12;;;;;;;12.40;5.80;;;-1.80;99.90;;;;;;5000204;28;20027;-85
2024/01/11 07:41:38;;;;;;;9.45;5.22;;;-1.80;99.90;;;;;;5003933;28;20030;-85
2024/01/11 07:44:04;;;;;;;10.48;6.22;;;-1.80;99.90;;;;;;5004208;28;20624;-84
2024/01/11 07:46:29;;;;;;;9.00;4.97;;;-1.80;99.90;;;;;;4995559;28;20026;-84
2024/01/11 07:48:55;;;;;;;9.77;5.88;;;-1.70;99.90;;;;;;5003338;28;20738;-85
2024/01/11 07:51:21;;;;;;;15.18;6.03;;;-1.70;99.90;;;;;;5005268;28;20030;-85
2024/01/11 07:53:47;;;;;;;11.68;5.25;;;-1.70;99.90;;;;;;5007135;28;20030;-85
2024/01/11 07:56:13;;;;;;;12.52;5.38;;;-1.70;99.90;;;;;;5001211;28;20070;-85
2024/01/11 07:58:41;;;;;;;14.38;6.10;;;-1.60;99.90;;;;;;5009187;28;20689;-85
2024/01/11 08:01:07;;;;;;;8.85;5.07;;;-1.70;99.90;;;;;;5010043;28;20036;-85
2024/01/11 08:03:34;;;;;;;9.25;5.07;;;-1.60;99.90;;;;;;5009740;28;20046;-84
2024/01/11 08:06:00;;;;;;;10.90;5.32;;;-1.60;99.90;;;;;;5012532;28;20486;-86
2024/01/11 08:08:26;;;;;;;10.65;5.15;;;-1.60;99.90;;;;;;5015935;28;20568;-86
2024/01/11 08:10:51;;;;;;;12.05;5.70;;;-1.60;99.90;;;;;;5008396;28;20034;-85
2024/01/11 08:13:18;;;;;;;9.07;4.97;;;-1.50;99.90;;;;;;5011308;28;20271;-85
2024/01/11 08:15:43;;;;;;;10.95;5.82;;;-1.50;99.90;;;;;;5016506;28;20037;-85
2024/01/11 08:18:09;;;;;;;9.98;5.00;;;-1.50;99.90;;;;;;5007143;28;20030;-85
2024/01/11 08:20:35;;;;;;;15.82;6.53;;;-1.50;99.90;;;;;;5005642;28;20026;-85
2024/01/11 08:23:00;;;;;;;10.07;5.78;;;-1.40;99.90;;;;;;5005089;28;20037;-85
2024/01/11 08:25:26;;;;;;;14.23;6.13;;;-1.40;99.90;;;;;;5006598;28;20049;-84
2024/01/11 08:27:52;;;;;;;14.05;6.30;;;-1.40;99.90;;;;;;5008658;28;20021;-85
2024/01/11 08:30:17;;;;;;;11.60;5.53;;;-1.40;99.90;;;;;;5002112;28;20022;-84
2024/01/11 08:32:43;;;;;;;15.02;5.80;;;-1.40;99.90;;;;;;5008667;28;20026;-84
2024/01/11 08:35:12;;;;;;;10.77;5.78;;;-1.30;99.90;;;;;;5006824;28;20029;-84
2024/01/11 08:37:38;;;;;;;10.57;5.55;;;-1.30;99.90;;;;;;4999852;28;20438;-85
2024/01/11 08:40:04;;;;;;;10.07;4.85;;;-1.20;99.90;;;;;;5008495;28;20105;-85
2024/01/11 08:42:31;;;;;;;10.18;5.68;;;-1.20;99.90;;;;;;5008989;28;20081;-85
2024/01/11 08:44:56;;;;;;;11.43;5.32;;;-1.20;99.90;;;;;;5006754;28;20034;-84
2024/01/11 08:47:22;;;;;;;12.05;5.85;;;-1.10;99.90;;;;;;5007131;28;20026;-83
2024/01/11 08:49:47;;;;;;;9.75;4.60;;;-1.10;99.90;;;;;;5011354;28;20113;-84
2024/01/11 08:52:13;;;;;;;13.23;6.45;;;-1.10;99.90;;;;;;5009012;28;20052;-84
2024/01/11 08:54:39;;;;;;;10.13;5.25;;;-1.10;99.90;;;;;;5004876;28;20026;-83
2024/01/11 08:57:04;;;;;;;12.77;5.72;;;-1.10;99.90;;;;;;5003266;28;20018;-85
2024/01/11 08:59:30;;;;;;;13.43;7.05;;;-1.10;99.90;;;;;;5005295;28;20729;-84
2024/01/11 09:01:55;;;;;;;14.95;6.40;;;-1.10;99.90;;;;;;5005066;28;20033;-84
2024/01/11 09:04:21;;;;;;;11.25;5.35;;;-1.10;99.90;;;;;;5001545;28;20045;-85
2024/01/11 09:06:46;;;;;;;13.20;6.15;;;-1.10;99.90;;;;;;5008892;28;20509;-85
2024/01/11 09:09:13;;;;;;;16.40;7.75;;;-1.00;99.90;;;;;;5001229;28;20026;-85
2024/01/11 09:11:39;;;;;;;20.92;10.35;;;-1.00;99.90;;;;;;5005423;28;20027;-83
2024/01/11 09:14:07;;;;;;;17.23;8.98;;;-1.00;99.90;;;;;;5006684;28;20080;-85
2024/01/11 09:16:32;;;;;;;19.33;11.57;;;-0.90;99.90;;;;;;5004765;28;20018;-85
2024/01/11 09:19:00;;;;;;;16.08;10.00;;;-0.90;99.90;;;;;;5004387;28;20022;-84
2024/01/11 09:21:26;;;;;;;19.17;7.80;;;-0.90;99.90;;;;;;5000127;28;20025;-84
2024/01/11 09:23:52;;;;;;;13.90;7.60;;;-0.90;99.90;;;;;;5002515;28;20444;-84
2024/01/11 09:26:17;;;;;;;19.63;8.45;;;-0.90;99.90;;;;;;5008414;28;20030;-85
2024/01/11 09:28:43;;;;;;;19.75;10.40;;;-0.90;99.90;;;;;;5004240;28;20426;-85
2024/01/11 09:31:08;;;;;;;20.02;12.25;;;-0.80;99.90;;;;;;5006982;28;20027;-85
2024/01/11 09:33:34;;;;;;;22.73;12.85;;;-0.80;99.90;;;;;;4999615;28;20014;-83
2024/01/11 09:35:59;;;;;;;21.38;10.98;;;-0.80;99.90;;;;;;5008260;28;20064;-84
2024/01/11 09:38:25;;;;;;;23.65;10.40;;;-0.80;99.90;;;;;;5007826;28;20030;-85
2024/01/11 09:41:09;;;;;;;16.73;9.35;;;-0.70;99.90;;;;;;5007307;28;20032;-85
2024/01/11 09:43:35;;;;;;;19.10;8.35;;;-0.70;99.90;;;;;;5005763;28;20057;-84
2024/01/11 09:46:05;;;;;;;25.27;8.65;;;-0.60;99.90;;;;;;4999827;28;20033;-84
2024/01/11 09:48:33;;;;;;;17.27;8.05;;;-0.70;99.90;;;;;;5004347;28;20036;-84
2024/01/11 09:51:03;;;;;;;16.58;7.85;;;-0.60;99.90;;;;;;5007852;28;20046;-85
2024/01/11 09:53:32;;;;;;;18.58;9.00;;;-0.60;99.90;;;;;;5009091;28;20057;-84
2024/01/11 09:56:04;;;;;;;21.40;8.73;;;-0.60;99.90;;;;;;5011108;28;20018;-85
2024/01/11 09:58:30;;;;;;;17.35;8.85;;;-0.50;99.90;;;;;;5009426;28;20026;-85
2024/01/11 10:00:57;;;;;;;15.48;7.93;;;-0.50;99.90;;;;;;5013484;28;21188;-84
2024/01/11 10:03:24;;;;;;;23.25;8.27;;;-0.50;99.90;;;;;;5015095;28;20494;-84
2024/01/11 10:05:53;;;;;;;16.80;7.13;;;-0.50;99.90;;;;;;5006735;28;20128;-84
2024/01/11 10:08:23;;;;;;;16.48;7.50;;;-0.40;99.90;;;;;;5004174;28;20068;-85
2024/01/11 10:10:48;;;;;;;18.75;8.43;;;-0.40;99.90;;;;;;5001648;28;20034;-83
2024/01/11 10:13:16;;;;;;;16.75;7.45;;;-0.30;99.90;;;;;;5007306;28;20026;-85
2024/01/11 10:15:42;;;;;;;13.48;8.05;;;-0.40;99.90;;;;;;5010861;28;20018;-85
2024/01/11 10:18:07;;;;;;;12.18;6.68;;;-0.30;99.90;;;;;;5001851;28;20693;-86
2024/01/11 10:20:33;;;;;;;18.42;8.65;;;-0.30;99.90;;;;;;4999719;28;20082;-86
2024/01/11 10:22:59;;;;;;;18.13;7.47;;;-0.30;99.90;;;;;;4998037;28;20080;-86
2024/01/11 10:25:24;;;;;;;15.95;6.13;;;-0.20;99.90;;;;;;5002564;28;20397;-85
2024/01/11 10:27:50;;;;;;;14.68;6.78;;;-0.20;99.90;;;;;;5001279;28;20026;-85
2024/01/11 10:30:16;;;;;;;14.35;6.53;;;-0.20;99.90;;;;;;5004177;28;20048;-84
2024/01/11 10:32:43;;;;;;;11.32;6.43;;;-0.20;99.90;;;;;;5005154;28;20494;-83
2024/01/11 10:35:09;;;;;;;11.77;6.88;;;-0.10;99.90;;;;;;5005459;28;20025;-85
2024/01/11 10:37:38;;;;;;;15.07;6.90;;;-0.10;99.90;;;;;;5000900;28;20076;-85
2024/01/11 10:40:10;;;;;;;11.15;5.93;;;-0.10;99.90;;;;;;5000786;28;20042;-85
2024/01/11 10:42:40;;;;;;;13.32;7.05;;;-0.10;99.90;;;;;;5002240;28;20027;-85
2024/01/11 10:45:14;;;;;;;14.98;7.18;;;-0.20;99.90;;;;;;5001480;28;20032;-85
2024/01/11 10:47:45;;;;;;;15.70;6.63;;;-0.10;99.90;;;;;;4997961;28;20026;-85
2024/01/11 10:50:12;;;;;;;12.77;6.50;;;-0.10;99.90;;;;;;5000489;28;20501;-84
2024/01/11 10:52:54;;;;;;;18.83;8.35;;;-0.10;99.90;;;;;;5005877;28;20026;-85
2024/01/11 10:55:21;;;;;;;10.40;5.68;;;-0.10;99.90;;;;;;5003556;28;20505;-85
2024/01/11 10:57:49;;;;;;;13.90;6.75;;;-0.10;99.90;;;;;;5003668;28;20610;-85
2024/01/11 11:00:16;;;;;;;15.57;6.07;;;-0.10;99.90;;;;;;5003333;28;20512;-84
2024/01/11 11:02:42;;;;;;;11.45;6.03;;;0.00;99.90;;;;;;4998644;28;20113;-85
2024/01/11 11:05:10;;;;;;;11.57;5.85;;;0.00;99.90;;;;;;5001224;28;20496;-83
2024/01/11 11:07:38;;;;;;;12.07;5.97;;;0.00;99.90;;;;;;5005397;28;20081;-84
2024/01/11 11:10:05;;;;;;;13.35;6.75;;;0.00;99.90;;;;;;5001020;28;20125;-85
2024/01/11 11:12:33;;;;;;;12.38;5.90;;;0.00;99.90;;;;;;5005405;28;20073;-85
2024/01/11 11:15:01;;;;;;;16.52;6.75;;;0.10;99.90;;;;;;5001862;28;20018;-85
2024/01/11 11:17:27;;;;;;;15.05;7.57;;;0.10;99.90;;;;;;5001697;28;20494;-85
2024/01/11 11:19:53;;;;;;;12.75;6.68;;;0.10;99.90;;;;;;5003570;28;20118;-85
2024/01/11 11:22:19;;;;;;;15.82;7.30;;;0.20;99.90;;;;;;5005278;28;20014;-84
2024/01/11 11:24:45;;;;;;;16.30;7.38;;;0.20;99.90;;;;;;5002472;28;20026;-84
2024/01/11 11:27:14;;;;;;;14.02;7.05;;;0.20;99.90;;;;;;5000040;28;20075;-85
2024/01/11 11:29:40;;;;;;;18.23;7.97;;;0.20;99.90;;;;;;4996797;28;20100;-83
2024/01/11 11:32:06;;;;;;;14.13;6.50;;;0.20;99.90;;;;;;5009370;28;20034;-85
2024/01/11 11:34:44;;;;;;;17.60;7.30;;;0.30;99.90;;;;;;5001570;28;20030;-84
2024/01/11 11:37:10;;;;;;;15.05;7.40;;;0.20;99.90;;;;;;5004470;28;20631;-85
2024/01/11 11:39:36;;;;;;;17.83;7.63;;;0.30;99.90;;;;;;5011571;28;20036;-84
2024/01/11 11:42:02;;;;;;;16.08;8.07;;;0.30;99.90;;;;;;5009509;28;20030;-85
2024/01/11 11:44:29;;;;;;;19.10;8.30;;;0.30;99.90;;;;;;5004396;28;20044;-84
2024/01/11 11:46:54;;;;;;;15.50;7.80;;;0.40;99.90;;;;;;5007401;28;20037;-85
2024/01/11 11:49:20;;;;;;;16.83;7.45;;;0.30;99.90;;;;;;5011422;28;20129;-85
2024/01/11 11:51:45;;;;;;;21.15;8.45;;;0.30;99.90;;;;;;5013122;28;20034;-85
2024/01/11 11:54:11;;;;;;;23.70;10.07;;;0.30;99.90;;;;;;5008638;28;20031;-83
2024/01/11 11:56:37;;;;;;;185.77;77.68;;;0.40;99.90;;;;;;5007014;28;20146;-84
2024/01/11 11:59:03;;;;;;;64.93;32.83;;;0.40;99.90;;;;;;5002364;28;20084;-85
2024/01/11 12:01:31;;;;;;;38.03;18.77;;;0.40;99.90;;;;;;5004942;28;20034;-84
2024/01/11 12:03:57;;;;;;;32.10;16.08;;;0.40;99.90;;;;;;5016829;28;20034;-86
2024/01/11 12:06:24;;;;;;;26.60;13.75;;;0.40;99.90;;;;;;5005561;28;20056;-85
2024/01/11 12:08:53;;;;;;;22.65;13.73;;;0.40;99.90;;;;;;5014944;28;20026;-83
2024/01/11 12:11:20;;;;;;;22.63;11.05;;;0.50;99.90;;;;;;5029288;28;20049;-84
2024/01/11 12:13:50;;;;;;;22.02;9.50;;;0.50;99.90;;;;;;5016706;28;20026;-84
2024/01/11 12:16:15;;;;;;;16.60;8.45;;;0.50;99.90;;;;;;5011322;28;20015;-85
2024/01/11 12:18:41;;;;;;;22.33;10.18;;;0.60;99.90;;;;;;5007970;28;20031;-85
2024/01/11 12:21:07;;;;;;;22.50;10.30;;;0.60;99.90;;;;;;5011526;28;20049;-85
2024/01/11 12:23:35;;;;;;;24.83;11.32;;;0.60;99.90;;;;;;5008093;28;20491;-85
2024/01/11 12:26:07;;;;;;;24.08;10.63;;;0.70;99.90;;;;;;5012429;28;20481;-85
2024/01/11 12:28:33;;;;;;;19.27;10.52;;;0.70;99.90;;;;;;5012535;28;20406;-85